createdAt,value
2022-08-10T00:01:55.075Z,27.50
2022-08-10T00:04:24.971Z,27.60
2022-08-10T00:06:56.626Z,27.60
2022-08-10T00:09:25.565Z,27.60
2022-08-10T00:11:54.005Z,27.70
2022-08-10T00:14:22.451Z,27.60
2022-08-10T00:16:50.942Z,27.60
2022-08-10T00:19:19.580Z,27.50
2022-08-10T00:21:48.823Z,27.60
2022-08-10T00:24:17.473Z,27.70
2022-08-10T00:27:52.201Z,27.90
2022-08-10T00:29:34.534Z,28.00
2022-08-10T00:32:02.932Z,28.00
2022-08-10T00:34:33.025Z,27.90
2022-08-10T00:37:01.708Z,28.10
2022-08-10T00:39:36.162Z,28.00
2022-08-10T00:42:10.470Z,28.00
2022-08-10T00:44:41.928Z,28.10
2022-08-10T00:47:22.738Z,28.20
2022-08-10T00:49:59.979Z,28.20
2022-08-10T00:52:30.127Z,28.20
2022-08-10T00:54:59.915Z,28.10
2022-08-10T00:57:28.875Z,28.20
2022-08-10T00:59:59.137Z,28.10
2022-08-10T01:02:33.391Z,28.10
2022-08-10T01:05:12.196Z,28.00
2022-08-10T01:08:08.035Z,28.10
2022-08-10T01:10:52.760Z,28.10
2022-08-10T01:13:40.054Z,28.00
2022-08-10T01:16:27.196Z,28.10
2022-08-10T01:18:58.658Z,28.10
2022-08-10T01:21:48.050Z,28.00
2022-08-10T01:24:47.596Z,28.10
2022-08-10T01:27:27.478Z,28.20
2022-08-10T01:30:16.595Z,28.20
2022-08-10T01:33:10.995Z,28.30
2022-08-10T01:35:58.689Z,28.30
2022-08-10T01:38:51.201Z,28.30
2022-08-10T01:41:47.350Z,28.30
2022-08-10T01:44:26.248Z,28.30
2022-08-10T01:47:22.274Z,28.30
2022-08-10T01:49:55.041Z,28.30
2022-08-10T01:52:27.341Z,28.30
2022-08-10T01:54:57.678Z,28.30
2022-08-10T01:57:32.585Z,28.30
2022-08-10T02:00:03.556Z,28.20
2022-08-10T02:02:34.902Z,28.10
2022-08-10T02:05:06.272Z,28.20
2022-08-10T02:07:37.889Z,28.10
2022-08-10T02:10:11.868Z,28.10
2022-08-10T02:12:42.571Z,28.00
2022-08-10T02:15:16.873Z,27.80
2022-08-10T02:18:01.957Z,27.80
2022-08-10T02:20:54.389Z,27.90
2022-08-10T02:23:24.850Z,28.00
2022-08-10T02:25:56.330Z,27.90
2022-08-10T02:28:30.824Z,27.80
2022-08-10T02:31:23.237Z,27.80
2022-08-10T02:33:56.651Z,27.90
2022-08-10T02:36:32.883Z,28.00
2022-08-10T02:39:04.605Z,28.10
2022-08-10T02:45:13.341Z,28.10
2022-08-10T02:45:26.599Z,28.00
2022-08-10T02:48:02.520Z,28.10
2022-08-10T02:50:37.661Z,28.10
2022-08-10T02:53:06.000Z,28.10
2022-08-10T02:55:49.748Z,28.00
2022-08-10T02:58:35.939Z,28.00
2022-08-10T03:01:09.992Z,28.10
2022-08-10T03:04:02.023Z,28.10
2022-08-10T03:06:41.031Z,28.10
2022-08-10T03:09:14.765Z,27.90
2022-08-10T03:12:37.805Z,28.10
2022-08-10T03:14:37.199Z,28.00
2022-08-10T03:17:07.671Z,27.80
2022-08-10T03:20:35.614Z,27.70
2022-08-10T03:22:27.486Z,27.50
2022-08-10T03:24:56.479Z,27.50
2022-08-10T03:27:25.790Z,27.50
2022-08-10T03:30:28.172Z,27.40
2022-08-10T03:32:45.048Z,27.20
2022-08-10T03:35:14.428Z,27.10
2022-08-10T03:37:42.990Z,27.10
2022-08-10T03:40:12.031Z,27.00
2022-08-10T03:42:41.752Z,26.90
2022-08-10T03:45:11.480Z,26.90
2022-08-10T03:47:42.479Z,26.80
2022-08-10T03:50:27.497Z,26.70
2022-08-10T03:53:00.488Z,26.70
2022-08-10T03:56:28.878Z,26.70
2022-08-10T03:58:17.533Z,26.70
2022-08-10T04:00:47.973Z,26.60
2022-08-10T04:03:16.600Z,26.50
2022-08-10T04:05:45.571Z,26.40
2022-08-10T04:08:14.962Z,26.30
2022-08-10T04:10:43.314Z,26.20
2022-08-10T04:13:11.799Z,26.10
2022-08-10T04:15:40.576Z,26.10
2022-08-10T04:18:09.054Z,26.00
2022-08-10T04:20:53.597Z,25.90
2022-08-10T04:23:26.419Z,25.90
2022-08-10T04:25:55.376Z,25.80
2022-08-10T04:28:24.400Z,25.80
2022-08-10T04:30:55.003Z,25.70
2022-08-10T04:33:25.355Z,25.70
2022-08-10T04:35:54.484Z,25.60
2022-08-10T04:38:25.805Z,25.70
2022-08-10T04:40:54.607Z,25.70
2022-08-10T04:43:23.043Z,25.70
2022-08-10T04:45:52.023Z,25.70
2022-08-10T04:48:42.658Z,25.70
2022-08-10T04:51:18.897Z,25.60
2022-08-10T04:54:05.578Z,25.60
2022-08-10T04:56:39.825Z,25.50
2022-08-10T04:59:10.806Z,25.40
2022-08-10T05:02:12.284Z,25.20
2022-08-10T05:04:35.285Z,25.10
2022-08-10T05:07:09.995Z,25.10
2022-08-10T05:10:02.556Z,25.10
2022-08-10T05:12:30.966Z,24.60
2022-08-10T05:14:59.453Z,24.50
2022-08-10T05:17:27.892Z,24.60
2022-08-10T05:20:03.646Z,24.50
2022-08-10T05:22:44.813Z,24.10
2022-08-10T05:25:19.423Z,23.70
2022-08-10T05:27:48.835Z,23.60
2022-08-10T05:30:20.914Z,23.60
2022-08-10T05:32:56.362Z,23.40
2022-08-10T05:35:56.342Z,23.20
2022-08-10T05:38:21.967Z,22.90
2022-08-10T05:40:51.696Z,22.80
2022-08-10T05:43:21.895Z,23.00
2022-08-10T05:46:18.349Z,23.00
2022-08-10T05:48:57.254Z,22.90
2022-08-10T05:51:30.050Z,22.80
2022-08-10T05:54:04.860Z,22.60
2022-08-10T05:56:54.799Z,22.70
2022-08-10T06:00:30.847Z,22.80
2022-08-10T06:02:35.411Z,22.70
2022-08-10T06:05:26.826Z,22.60
2022-08-10T06:08:07.303Z,22.70
2022-08-10T06:12:23.599Z,22.70
2022-08-10T06:14:13.456Z,22.70
2022-08-10T06:16:36.261Z,22.60
2022-08-10T06:19:05.185Z,22.60
2022-08-10T06:21:34.245Z,22.50
2022-08-10T06:24:04.377Z,22.50
2022-08-10T06:26:32.805Z,22.60
2022-08-10T06:29:12.044Z,22.60
2022-08-10T06:31:48.321Z,22.60
2022-08-10T06:34:30.682Z,22.60
2022-08-10T06:37:02.210Z,22.40
2022-08-10T06:39:34.044Z,22.40
2022-08-10T06:42:18.092Z,22.40
2022-08-10T06:45:05.790Z,22.40
2022-08-10T06:48:00.382Z,22.40
2022-08-10T06:50:56.390Z,22.20
2022-08-10T06:53:52.409Z,22.10
2022-08-10T06:56:38.158Z,21.90
2022-08-10T06:59:21.951Z,21.70
2022-08-10T07:02:28.299Z,21.50
2022-08-10T07:05:03.256Z,21.20
2022-08-10T07:07:35.712Z,21.00
2022-08-10T07:10:04.585Z,20.90
2022-08-10T07:12:36.172Z,20.90
2022-08-10T07:15:07.483Z,20.70
2022-08-10T07:17:39.732Z,20.60
2022-08-10T07:20:12.931Z,20.30
2022-08-10T07:23:55.455Z,20.20
2022-08-10T07:25:32.075Z,20.20
2022-08-10T07:28:02.354Z,20.30
2022-08-10T07:30:33.884Z,20.20
2022-08-10T07:33:03.541Z,20.10
2022-08-10T07:35:42.499Z,20.10
2022-08-10T07:38:32.993Z,20.00
2022-08-10T07:41:02.903Z,19.90
2022-08-10T07:43:36.847Z,19.80
2022-08-10T07:46:10.668Z,19.80
2022-08-10T07:48:45.077Z,19.70
2022-08-10T07:51:15.737Z,19.60
2022-08-10T07:53:51.079Z,19.50
2022-08-10T07:56:47.442Z,19.40
2022-08-10T07:59:16.264Z,19.20
2022-08-10T08:01:51.236Z,19.10
2022-08-10T08:04:23.099Z,19.00
2022-08-10T08:06:53.655Z,18.80
2022-08-10T08:09:23.110Z,18.70
2022-08-10T08:11:52.693Z,18.60
2022-08-10T08:14:23.043Z,18.40
2022-08-10T08:16:54.290Z,18.40
2022-08-10T08:19:27.799Z,18.30
2022-08-10T08:24:11.140Z,18.20
2022-08-10T08:24:53.928Z,18.20
2022-08-10T08:27:23.856Z,18.00
2022-08-10T08:29:53.569Z,17.90
2022-08-10T08:32:33.234Z,17.90
2022-08-10T08:35:09.780Z,17.90
2022-08-10T08:38:31.461Z,17.80
2022-08-10T08:40:34.287Z,17.80
2022-08-10T08:43:22.831Z,17.90
2022-08-10T08:46:07.183Z,17.90
2022-08-10T08:50:04.769Z,18.00
2022-08-10T08:52:25.138Z,18.00
2022-08-10T08:56:04.992Z,18.00
2022-08-10T08:58:38.292Z,17.90
2022-08-10T09:01:40.564Z,18.00
2022-08-10T09:04:28.773Z,18.00
2022-08-10T09:07:39.310Z,18.10
2022-08-10T09:10:15.891Z,18.00
2022-08-10T09:13:05.986Z,18.00
2022-08-10T09:16:15.002Z,18.00
2022-08-10T09:19:07.817Z,18.00
2022-08-10T09:21:59.132Z,18.00
2022-08-10T09:25:00.376Z,18.00
2022-08-10T09:27:37.450Z,18.00
2022-08-10T09:30:11.491Z,18.00
2022-08-10T09:36:14.149Z,18.00
2022-08-10T09:36:28.905Z,18.20
2022-08-10T09:40:06.691Z,18.10
2022-08-10T09:43:14.531Z,18.10
2022-08-10T09:46:12.117Z,18.10
2022-08-10T09:49:10.194Z,18.10
2022-08-10T09:51:57.985Z,18.20
2022-08-10T09:54:44.848Z,18.20
2022-08-10T10:00:22.498Z,18.00
2022-08-10T10:03:07.176Z,18.00
2022-08-10T10:05:56.874Z,18.10
2022-08-10T10:08:53.664Z,18.00
2022-08-10T10:11:45.148Z,18.00
2022-08-10T10:14:19.507Z,18.10
2022-08-10T10:17:13.522Z,18.10
2022-08-10T10:19:51.951Z,18.00
2022-08-10T10:22:52.927Z,18.00
2022-08-10T10:25:50.030Z,18.00
2022-08-10T10:29:19.577Z,18.10
2022-08-10T10:31:50.946Z,17.90
2022-08-10T10:34:42.310Z,17.90
2022-08-10T10:37:12.549Z,17.90
2022-08-10T10:39:53.334Z,17.90
2022-08-10T10:42:45.331Z,17.90
2022-08-10T10:45:29.185Z,18.00
2022-08-10T10:48:29.369Z,17.90
2022-08-10T10:51:16.570Z,17.90
2022-08-10T10:53:47.988Z,17.90
2022-08-10T10:56:59.159Z,17.90
2022-08-10T10:59:55.508Z,17.90
2022-08-10T11:02:58.736Z,17.90
2022-08-10T11:06:09.492Z,17.90
2022-08-10T11:08:52.094Z,18.00
2022-08-10T11:12:00.171Z,17.90
2022-08-10T11:14:59.650Z,17.90
2022-08-10T11:17:41.613Z,17.80
2022-08-10T11:20:10.184Z,17.80
2022-08-10T11:22:56.790Z,17.80
2022-08-10T11:25:32.624Z,17.70
2022-08-10T11:28:07.139Z,17.70
2022-08-10T11:30:46.151Z,17.70
2022-08-10T11:37:00.736Z,17.80
2022-08-10T11:39:57.132Z,17.70
2022-08-10T11:42:40.530Z,17.70
2022-08-10T11:45:25.179Z,17.60
2022-08-10T11:47:57.900Z,17.80
2022-08-10T11:50:44.348Z,17.80
2022-08-10T11:53:28.185Z,17.70
2022-08-10T11:56:11.856Z,17.80
2022-08-10T11:59:16.629Z,17.70
2022-08-10T12:01:48.081Z,17.70
2022-08-10T12:04:17.403Z,17.70
2022-08-10T12:07:02.108Z,17.70
2022-08-10T12:10:09.526Z,17.80
2022-08-10T12:12:21.842Z,17.80
2022-08-10T12:15:09.849Z,17.70
2022-08-10T12:18:03.513Z,17.60
2022-08-10T12:20:36.905Z,17.60
2022-08-10T12:23:27.535Z,17.70
2022-08-10T12:26:17.524Z,17.70
2022-08-10T12:28:58.896Z,17.80
2022-08-10T12:31:42.284Z,17.80
2022-08-10T12:34:27.134Z,17.80
2022-08-10T12:37:03.977Z,17.80
2022-08-10T12:39:38.207Z,17.80
2022-08-10T12:42:38.769Z,17.70
2022-08-10T12:45:24.784Z,17.70
2022-08-10T12:48:09.368Z,17.80
2022-08-10T12:50:44.873Z,17.70
2022-08-10T12:53:31.462Z,17.60
2022-08-10T12:56:02.477Z,17.70
2022-08-10T12:58:58.688Z,17.80
2022-08-10T13:02:06.175Z,17.80
2022-08-10T13:04:34.501Z,17.90
2022-08-10T13:07:05.196Z,17.90
2022-08-10T13:09:56.218Z,17.70
2022-08-10T13:12:38.433Z,17.90
2022-08-10T13:15:45.101Z,17.90
2022-08-10T13:18:18.150Z,17.90
2022-08-10T13:20:53.765Z,17.90
2022-08-10T13:23:29.935Z,17.90
2022-08-10T13:26:01.882Z,17.80
2022-08-10T13:28:49.699Z,17.80
2022-08-10T13:32:03.386Z,17.80
2022-08-10T13:34:43.542Z,17.80
2022-08-10T13:37:14.854Z,17.70
2022-08-10T13:39:57.885Z,17.70
2022-08-10T13:42:33.782Z,17.70
2022-08-10T13:45:18.933Z,17.70
2022-08-10T13:47:51.854Z,17.60
2022-08-10T13:50:34.969Z,17.70
2022-08-10T13:53:14.460Z,17.70
2022-08-10T13:55:56.728Z,17.70
2022-08-10T13:58:32.768Z,17.70
2022-08-10T14:01:03.994Z,17.70
2022-08-10T14:03:39.103Z,17.70
2022-08-10T14:06:12.972Z,17.80
2022-08-10T14:08:47.087Z,17.80
2022-08-10T14:11:19.149Z,17.80
2022-08-10T14:14:04.451Z,17.80
2022-08-10T14:16:34.324Z,17.80
2022-08-10T14:19:12.570Z,17.90
2022-08-10T14:21:42.361Z,17.90
2022-08-10T14:24:27.321Z,18.10
2022-08-10T14:27:11.283Z,18.20
2022-08-10T14:29:45.326Z,18.20
2022-08-10T14:32:17.296Z,18.10
2022-08-10T14:36:15.346Z,18.10
2022-08-10T14:38:01.324Z,18.10
2022-08-10T14:40:38.881Z,18.20
2022-08-10T14:43:28.649Z,18.30
2022-08-10T14:46:08.293Z,18.40
2022-08-10T14:48:48.272Z,18.40
2022-08-10T14:51:20.791Z,18.30
2022-08-10T14:53:59.441Z,18.30
2022-08-10T14:56:35.631Z,18.50
2022-08-10T14:59:09.456Z,18.50
2022-08-10T15:02:37.606Z,18.50
2022-08-10T15:04:37.567Z,18.40
2022-08-10T15:07:21.106Z,18.50
2022-08-10T15:10:00.966Z,18.50
2022-08-10T15:12:35.209Z,18.50
2022-08-10T15:15:07.216Z,18.80
2022-08-10T15:17:41.424Z,18.70
2022-08-10T15:20:31.404Z,18.90
2022-08-10T15:23:07.685Z,18.80
2022-08-10T15:25:57.706Z,18.90
2022-08-10T15:28:39.894Z,19.20
2022-08-10T15:31:22.132Z,19.10
2022-08-10T15:34:11.506Z,19.20
2022-08-10T15:37:36.380Z,19.10
2022-08-10T15:40:21.433Z,19.20
2022-08-10T15:42:53.329Z,19.40
2022-08-10T15:45:23.306Z,19.50
2022-08-10T15:48:03.051Z,19.60
2022-08-10T15:50:45.088Z,19.80
2022-08-10T15:53:24.109Z,19.80
2022-08-10T15:56:04.682Z,20.00
2022-08-10T15:58:39.780Z,20.00
2022-08-10T16:02:13.898Z,20.00
2022-08-10T16:05:02.508Z,20.10
2022-08-10T16:07:49.386Z,20.20
2022-08-10T16:10:28.264Z,20.20
2022-08-10T16:14:00.790Z,20.20
2022-08-10T16:15:59.055Z,20.40
2022-08-10T16:18:29.996Z,20.40
2022-08-10T16:21:01.566Z,20.60
2022-08-10T16:23:39.837Z,20.50
2022-08-10T16:26:14.931Z,20.50
2022-08-10T16:29:01.710Z,20.60
2022-08-10T16:31:33.225Z,21.00
2022-08-10T16:34:07.524Z,20.90
2022-08-10T16:36:54.148Z,20.90
2022-08-10T16:39:58.555Z,20.80
2022-08-10T16:42:24.291Z,21.00
2022-08-10T16:44:58.796Z,21.00
2022-08-10T16:47:29.920Z,21.00
2022-08-10T16:50:02.015Z,20.90
2022-08-10T16:52:33.651Z,21.00
2022-08-10T16:55:24.533Z,21.20
2022-08-10T16:58:09.351Z,21.50
2022-08-10T17:00:40.813Z,21.40
2022-08-10T17:03:22.269Z,21.70
2022-08-10T17:06:11.134Z,21.70
2022-08-10T17:08:50.589Z,21.90
2022-08-10T17:11:21.965Z,21.80
2022-08-10T17:13:50.721Z,21.40
2022-08-10T17:16:19.236Z,21.30
2022-08-10T17:18:49.163Z,21.10
2022-08-10T17:21:23.159Z,20.90
2022-08-10T17:23:55.767Z,20.90
2022-08-10T17:26:37.170Z,21.00
2022-08-10T17:29:58.949Z,21.10
2022-08-10T17:32:44.125Z,21.10
2022-08-10T17:35:23.100Z,21.20
2022-08-10T17:38:13.642Z,21.20
2022-08-10T17:41:11.710Z,21.20
2022-08-10T17:43:58.483Z,21.20
2022-08-10T17:46:36.134Z,21.40
2022-08-10T17:49:11.963Z,21.30
2022-08-10T17:51:43.099Z,21.40
2022-08-10T17:54:40.799Z,21.70
2022-08-10T17:57:16.127Z,21.90
2022-08-10T17:59:46.338Z,22.10
2022-08-10T18:02:28.944Z,22.10
2022-08-10T18:04:59.832Z,22.20
2022-08-10T18:07:51.316Z,22.40
2022-08-10T18:10:22.587Z,22.40
2022-08-10T18:12:55.067Z,22.00
2022-08-10T18:15:28.452Z,22.00
2022-08-10T18:18:04.544Z,22.00
2022-08-10T18:20:38.393Z,21.90
2022-08-10T18:23:09.193Z,22.00
2022-08-10T18:25:44.992Z,22.10
2022-08-10T18:28:18.913Z,22.10
2022-08-10T18:30:51.070Z,22.40
2022-08-10T18:33:25.332Z,22.40
2022-08-10T18:35:55.064Z,22.80
2022-08-10T18:38:25.749Z,23.30
2022-08-10T18:41:09.200Z,23.50
2022-08-10T18:44:07.264Z,23.30
2022-08-10T18:46:47.594Z,23.90
2022-08-10T18:49:41.160Z,24.00
2022-08-10T18:52:11.678Z,24.40
2022-08-10T18:54:50.307Z,24.50
2022-08-10T18:57:54.234Z,24.30
2022-08-10T19:00:27.116Z,24.40
2022-08-10T19:03:16.816Z,24.10
2022-08-10T19:06:10.901Z,24.20
2022-08-10T19:08:49.156Z,24.00
2022-08-10T19:11:49.816Z,24.00
2022-08-10T19:14:26.730Z,23.50
2022-08-10T19:17:17.525Z,23.40
2022-08-10T19:19:51.445Z,23.40
2022-08-10T19:22:32.382Z,23.10
2022-08-10T19:25:08.807Z,22.90
2022-08-10T19:28:03.979Z,22.90
2022-08-10T19:30:46.567Z,22.80
2022-08-10T19:33:46.359Z,23.20
2022-08-10T19:37:06.802Z,23.50
2022-08-10T19:39:58.093Z,23.30
2022-08-10T19:43:09.136Z,23.40
2022-08-10T19:46:02.650Z,23.40
2022-08-10T19:49:09.798Z,23.60
2022-08-10T19:52:00.508Z,23.90
2022-08-10T19:55:15.409Z,24.10
2022-08-10T19:58:05.343Z,23.90
2022-08-10T20:00:59.677Z,23.90
2022-08-10T20:03:47.949Z,23.70
2022-08-10T20:06:34.648Z,23.80
2022-08-10T20:09:16.150Z,23.50
2022-08-10T20:12:07.592Z,23.70
2022-08-10T20:14:54.488Z,24.00
2022-08-10T20:17:57.936Z,23.90
2022-08-10T20:20:34.044Z,24.10
2022-08-10T20:23:34.098Z,24.30
2022-08-10T20:26:09.423Z,24.10
2022-08-10T20:28:48.070Z,24.10
2022-08-10T20:31:24.091Z,23.90
2022-08-10T20:34:06.484Z,24.40
2022-08-10T20:36:40.996Z,24.80
2022-08-10T20:39:40.479Z,24.80
2022-08-10T20:42:44.447Z,25.10
2022-08-10T20:45:46.470Z,25.60
2022-08-10T20:48:47.294Z,25.30
2022-08-10T20:51:20.840Z,25.40
2022-08-10T20:53:54.566Z,25.60
2022-08-10T20:57:00.279Z,25.90
2022-08-10T21:00:03.972Z,25.70
2022-08-10T21:02:50.863Z,25.20
2022-08-10T21:05:33.519Z,25.60
2022-08-10T21:08:35.823Z,25.60
2022-08-10T21:11:08.687Z,25.20
2022-08-10T21:13:55.419Z,25.30
2022-08-10T21:17:00.927Z,25.40
2022-08-10T21:19:57.002Z,25.50
2022-08-10T21:22:39.029Z,25.50
2022-08-10T21:25:20.555Z,25.50
2022-08-10T21:28:15.021Z,25.70
2022-08-10T21:31:01.662Z,25.60
2022-08-10T21:33:50.948Z,25.50
2022-08-10T21:36:25.835Z,25.40
2022-08-10T21:39:42.579Z,25.60
2022-08-10T21:42:30.178Z,25.80
2022-08-10T21:45:58.040Z,26.10
2022-08-10T21:48:59.018Z,26.00
2022-08-10T21:52:10.745Z,25.70
2022-08-10T21:55:16.805Z,25.90
2022-08-10T21:58:27.585Z,25.40
2022-08-10T22:01:31.813Z,25.30
2022-08-10T22:04:27.096Z,25.40
2022-08-10T22:07:16.608Z,25.30
2022-08-10T22:10:06.881Z,25.40
2022-08-10T22:12:59.923Z,25.80
2022-08-10T22:16:09.813Z,25.90
2022-08-10T22:19:14.506Z,25.80
2022-08-10T22:22:38.203Z,26.20
2022-08-10T22:25:53.806Z,26.20
2022-08-10T22:28:40.923Z,26.10
2022-08-10T22:32:13.995Z,26.30
2022-08-10T22:35:09.525Z,26.30
2022-08-10T22:38:16.078Z,25.80
2022-08-10T22:41:06.187Z,25.90
2022-08-10T22:43:55.457Z,26.20
2022-08-10T22:46:46.955Z,26.00
2022-08-10T22:49:23.162Z,25.50
2022-08-10T22:52:03.742Z,25.90
2022-08-10T22:55:07.974Z,26.00
2022-08-10T22:57:55.109Z,26.00
2022-08-10T23:00:31.400Z,25.70
2022-08-10T23:03:26.283Z,25.60
2022-08-10T23:06:09.393Z,25.80
2022-08-10T23:08:51.049Z,26.10
2022-08-10T23:11:27.501Z,26.10
2022-08-10T23:14:08.772Z,26.10
2022-08-10T23:17:17.326Z,26.00
2022-08-10T23:20:09.735Z,26.10
2022-08-10T23:22:43.581Z,26.10
2022-08-10T23:25:34.199Z,26.20
2022-08-10T23:28:12.612Z,26.30
2022-08-10T23:30:45.169Z,25.80
2022-08-10T23:33:18.706Z,25.90
2022-08-10T23:36:33.738Z,25.70
2022-08-10T23:39:27.316Z,25.80
2022-08-10T23:41:54.843Z,25.60
2022-08-10T23:44:24.658Z,25.50
2022-08-10T23:46:54.319Z,25.50
2022-08-10T23:49:24.387Z,25.50
2022-08-10T23:51:55.093Z,25.60
2022-08-10T23:54:25.922Z,25.60
2022-08-10T23:57:00.973Z,25.60
2022-08-10T23:59:33.218Z,25.40
